Blackpool Airport

Airport
ICAO code: 
EGNH
IATA Code: 
BLK
Summary
ICAO Region: 
EUR
Territory: 
Location: 
St Annes-on-the-Sea, Lancashire, England
Serving: 
Blackpool
Elevation: 
34 ft
Coordinates: 
Aerial View: 
53° 46' 17.004" N, 3° 1' 41.988" W
Metar
Observation
EGNH 011220Z 01011KT 9000 VCSH FEW010 SCT042 08/06 Q0997
Station
Blackpool Airport
Date/Time
2021-12-01 12:20:00
Wind direction
10°
Wind speed
11 kts
Lowest cloud amount
few clouds
Temperature
8°C
Dew point
6°C
Humidity
87%
QNH
997 hPa
Weather condition
n/a

Privately owned airport near Blackpool, Lancashire, England.

Climatology

Temperate Marine climate/Oceanic climate (Köppen climate classification Cfb).

Runways

Designator Length Width Surface Rops
7/25 799 30 ASP Yes/Yes
13/31 1077 23 ASP Yes/Yes
10/28 1869 46 ASP Yes/Yes
Airport map: 
Aerial View: 

SKYbrary Partners:

Safety knowledge contributed by: